createdAt,value
2018-08-16T00:02:28.489Z,100137.49
2018-08-16T00:05:00.029Z,100115.59
2018-08-16T00:07:35.735Z,100137.82
2018-08-16T00:10:20.091Z,100143.76
2018-08-16T00:12:55.385Z,100136.79
2018-08-16T00:18:10.662Z,100134.39
2018-08-16T00:20:43.126Z,100131.15
2018-08-16T00:23:13.833Z,100132.05
2018-08-16T00:25:45.089Z,100123.38
2018-08-16T00:28:15.430Z,100120.80
2018-08-16T00:30:46.543Z,100121.81
2018-08-16T00:33:18.614Z,100120.94
2018-08-16T00:35:50.451Z,100116.25
2018-08-16T00:38:21.965Z,100121.11
2018-08-16T00:40:51.802Z,100122.27
2018-08-16T00:43:22.578Z,100128.84
2018-08-16T00:45:52.757Z,100128.08
2018-08-16T00:48:23.111Z,100110.42
2018-08-16T00:50:55.345Z,100122.73
2018-08-16T00:53:25.068Z,100126.98
2018-08-16T00:55:54.718Z,100122.37
2018-08-16T00:58:27.508Z,100116.00
2018-08-16T01:00:59.384Z,100122.37
2018-08-16T01:03:30.151Z,100128.33
2018-08-16T01:06:01.335Z,100114.50
2018-08-16T01:08:30.970Z,100117.58
2018-08-16T01:11:02.097Z,100119.36
2018-08-16T01:13:33.787Z,100114.84
2018-08-16T01:16:04.873Z,100119.00
2018-08-16T01:18:38.367Z,100113.73
2018-08-16T01:21:13.838Z,100109.23
2018-08-16T01:23:48.337Z,100108.48
2018-08-16T01:26:21.030Z,100107.77
2018-08-16T01:34:56.725Z,100109.34
2018-08-16T01:37:25.975Z,100105.19
2018-08-16T01:39:58.194Z,100101.52
2018-08-16T01:42:28.407Z,100104.53
2018-08-16T01:45:00.311Z,100107.70
2018-08-16T01:47:31.247Z,100099.41
2018-08-16T01:50:00.555Z,100103.33
2018-08-16T01:52:31.655Z,100094.61
2018-08-16T01:55:01.606Z,100089.17
2018-08-16T01:57:30.840Z,100095.05
2018-08-16T02:00:03.434Z,100089.01
2018-08-16T02:02:35.614Z,100089.47
2018-08-16T02:05:06.578Z,100094.69
2018-08-16T02:07:35.793Z,100088.16
2018-08-16T02:10:11.306Z,100085.58
2018-08-16T02:12:41.242Z,100093.32
2018-08-16T02:17:52.671Z,100086.73
2018-08-16T02:20:25.349Z,100087.58
2018-08-16T02:22:55.377Z,100092.79
2018-08-16T02:25:27.288Z,100084.28
2018-08-16T02:27:56.874Z,100091.13
2018-08-16T02:30:26.430Z,100088.85
2018-08-16T02:32:55.792Z,100086.41
2018-08-16T02:35:25.492Z,100086.91
2018-08-16T02:37:54.743Z,100023.02
2018-08-16T02:40:27.333Z,100078.13
2018-08-16T02:42:56.998Z,100079.33
2018-08-16T02:45:26.205Z,100078.59
2018-08-16T02:47:55.555Z,100080.53
2018-08-16T02:50:26.008Z,100068.17
2018-08-16T02:52:59.254Z,100065.09
2018-08-16T02:55:30.436Z,100074.06
2018-08-16T02:58:01.759Z,100072.12
2018-08-16T03:00:31.026Z,100066.05
2018-08-16T03:03:00.271Z,100064.91
2018-08-16T03:05:29.923Z,100068.66
2018-08-16T03:07:59.247Z,100066.78
2018-08-16T03:10:29.347Z,100077.33
2018-08-16T03:12:59.154Z,100069.92
2018-08-16T03:15:28.476Z,100066.69
2018-08-16T03:17:58.437Z,100079.82
2018-08-16T03:20:27.983Z,100070.55
2018-08-16T03:22:57.248Z,100063.08
2018-08-16T03:25:26.485Z,100071.37
2018-08-16T03:27:56.096Z,100065.61
2018-08-16T03:30:25.402Z,100059.36
2018-08-16T03:32:54.663Z,100067.30
2018-08-16T03:35:25.214Z,100059.23
2018-08-16T03:37:57.773Z,100057.98
2018-08-16T03:40:26.978Z,100057.90
2018-08-16T03:42:56.472Z,100056.09
2018-08-16T03:45:25.723Z,100053.52
2018-08-16T03:47:56.557Z,100044.56
2018-08-16T03:50:27.177Z,100044.13
2018-08-16T03:52:56.578Z,100044.95
2018-08-16T03:55:27.425Z,100043.91
2018-08-16T03:57:57.056Z,100043.74
2018-08-16T04:00:26.316Z,100045.03
2018-08-16T04:02:56.107Z,100039.47
2018-08-16T04:05:25.907Z,100050.68
2018-08-16T04:07:55.366Z,100031.53
2018-08-16T04:10:25.246Z,100045.77
2018-08-16T04:12:54.519Z,100052.17
2018-08-16T04:15:23.885Z,100050.87
2018-08-16T04:17:53.417Z,100050.27
2018-08-16T04:20:22.874Z,100051.84
2018-08-16T04:22:52.163Z,100047.63
2018-08-16T04:25:23.006Z,100048.96
2018-08-16T04:27:52.311Z,100056.91
2018-08-16T04:30:24.778Z,100047.48
2018-08-16T04:32:54.143Z,100049.80
2018-08-16T04:35:23.905Z,100046.00
2018-08-16T04:37:55.944Z,100044.94
2018-08-16T04:40:25.487Z,100028.05
2018-08-16T04:42:54.874Z,100042.72
2018-08-16T04:45:24.868Z,100046.36
2018-08-16T04:47:54.270Z,100047.03
2018-08-16T04:50:24.831Z,100048.20
2018-08-16T04:52:54.659Z,100049.73
2018-08-16T04:55:32.582Z,100046.84
2018-08-16T04:58:05.169Z,100045.52
2018-08-16T05:00:39.438Z,100040.91
2018-08-16T05:03:11.655Z,100041.88
2018-08-16T05:05:46.171Z,100040.51
2018-08-16T05:08:29.023Z,100040.11
2018-08-16T05:13:33.291Z,100045.06
2018-08-16T05:16:03.521Z,100045.82
2018-08-16T05:20:57.769Z,100047.42
2018-08-16T05:23:26.981Z,100050.72
2018-08-16T05:25:58.213Z,100051.41
2018-08-16T05:28:27.717Z,99987.26
2018-08-16T05:30:57.103Z,100053.16
2018-08-16T05:33:26.469Z,100056.90
2018-08-16T05:35:57.572Z,100053.43
2018-08-16T05:38:26.831Z,100045.61
2018-08-16T05:40:56.443Z,100047.27
2018-08-16T05:43:25.813Z,100046.81
2018-08-16T05:45:55.283Z,100040.55
2018-08-16T05:48:25.022Z,100043.57
2018-08-16T05:50:54.440Z,100006.30
2018-08-16T05:53:23.820Z,100046.33
2018-08-16T05:55:53.054Z,100046.64
2018-08-16T05:58:23.233Z,100043.63
2018-08-16T06:00:54.263Z,100046.89
2018-08-16T06:03:24.383Z,100049.91
2018-08-16T06:05:54.333Z,100049.88
2018-08-16T06:08:24.498Z,100045.96
2018-08-16T06:10:54.752Z,100047.84
2018-08-16T06:13:24.612Z,100050.27
2018-08-16T06:15:54.921Z,100043.84
2018-08-16T06:18:24.285Z,100046.81
2018-08-16T06:20:53.745Z,100024.73
2018-08-16T06:23:23.047Z,100045.45
2018-08-16T06:25:52.752Z,100041.32
2018-08-16T06:28:22.324Z,100038.56
2018-08-16T06:30:51.653Z,100034.44
2018-08-16T06:33:21.527Z,100037.02
2018-08-16T06:35:51.065Z,100028.36
2018-08-16T06:38:20.335Z,100027.09
2018-08-16T06:40:49.646Z,100022.86
2018-08-16T06:43:19.062Z,100026.13
2018-08-16T06:45:48.613Z,100025.00
2018-08-16T06:48:18.940Z,100025.82
2018-08-16T06:50:48.270Z,100018.11
2018-08-16T06:53:17.523Z,100014.84
2018-08-16T06:55:46.831Z,100020.22
2018-08-16T06:58:16.597Z,100025.60
2018-08-16T07:00:46.052Z,100021.90
2018-08-16T07:03:15.405Z,100021.23
2018-08-16T07:05:51.323Z,100020.94
2018-08-16T07:08:23.859Z,100019.55
2018-08-16T07:10:54.727Z,100014.27
2018-08-16T07:13:24.321Z,100013.59
2018-08-16T07:15:53.691Z,100014.22
2018-08-16T07:18:22.983Z,100009.74
2018-08-16T07:20:52.305Z,100013.27
2018-08-16T07:23:22.070Z,100008.80
2018-08-16T07:25:52.409Z,100011.91
2018-08-16T07:28:22.285Z,100015.27
2018-08-16T07:30:53.915Z,100006.17
2018-08-16T07:33:23.276Z,100005.17
2018-08-16T07:35:52.620Z,100010.08
2018-08-16T07:38:21.953Z,100007.05
2018-08-16T07:40:55.077Z,99997.17
2018-08-16T07:43:24.625Z,99992.52
2018-08-16T07:45:54.589Z,100001.51
2018-08-16T07:48:23.966Z,100002.14
2018-08-16T07:50:54.625Z,99998.45
2018-08-16T07:53:24.828Z,100005.20
2018-08-16T07:55:54.122Z,99999.08
2018-08-16T07:58:23.460Z,100001.66
2018-08-16T08:00:52.944Z,100000.44
2018-08-16T08:03:22.881Z,100005.64
2018-08-16T08:05:56.611Z,100005.84
2018-08-16T08:08:26.756Z,99995.09
2018-08-16T08:10:56.356Z,99942.00
2018-08-16T08:13:26.655Z,100001.66
2018-08-16T08:15:56.582Z,99990.16
2018-08-16T08:18:27.207Z,99989.31
2018-08-16T08:20:58.154Z,99989.95
2018-08-16T08:23:27.636Z,100011.34
2018-08-16T08:25:57.826Z,99979.63
2018-08-16T08:28:27.414Z,99985.28
2018-08-16T08:30:57.464Z,99985.74
2018-08-16T08:33:27.431Z,99981.00
2018-08-16T08:36:10.644Z,99978.94
2018-08-16T08:38:40.504Z,99980.26
2018-08-16T08:41:11.967Z,99977.27
2018-08-16T08:43:53.491Z,99966.20
2018-08-16T08:46:23.747Z,99969.87
2018-08-16T08:48:53.469Z,99966.60
2018-08-16T08:51:23.782Z,99965.80
2018-08-16T08:55:01.325Z,99968.53
2018-08-16T08:58:48.271Z,99965.39
2018-08-16T09:01:17.801Z,99958.94
2018-08-16T09:03:47.685Z,99939.03
2018-08-16T09:06:18.249Z,99953.23
2018-08-16T09:08:48.857Z,99948.16
2018-08-16T09:11:29.274Z,99941.07
2018-08-16T09:15:11.681Z,99942.97
2018-08-16T09:17:40.885Z,99954.03
2018-08-16T09:20:10.205Z,99926.64
2018-08-16T09:22:40.490Z,99945.09
2018-08-16T09:25:10.957Z,99947.91
2018-08-16T09:27:40.833Z,99949.53
2018-08-16T09:30:24.056Z,99945.61
2018-08-16T09:33:04.323Z,99943.65
2018-08-16T09:35:33.690Z,99942.16
2018-08-16T09:38:03.050Z,99938.61
2018-08-16T09:40:35.552Z,99935.69
2018-08-16T09:43:05.209Z,99926.43
2018-08-16T09:47:52.732Z,99931.52
2018-08-16T09:50:24.984Z,99927.58
2018-08-16T09:52:54.360Z,99935.43
2018-08-16T09:55:23.687Z,99931.06
2018-08-16T09:57:54.337Z,99921.72
2018-08-16T10:00:30.740Z,99918.76
2018-08-16T10:03:00.771Z,99922.92
2018-08-16T10:05:31.112Z,99923.67
2018-08-16T10:08:05.103Z,99911.36
2018-08-16T10:10:38.373Z,99914.44
2018-08-16T10:13:14.915Z,99907.82
2018-08-16T10:15:45.608Z,99904.83
2018-08-16T10:18:19.459Z,99909.61
2018-08-16T10:20:51.780Z,99893.86
2018-08-16T10:23:22.106Z,99896.11
2018-08-16T10:25:52.378Z,99889.16
2018-08-16T10:28:23.690Z,99889.91
2018-08-16T10:30:54.706Z,99888.67
2018-08-16T10:33:25.350Z,99891.70
2018-08-16T10:35:56.785Z,99886.59
2018-08-16T10:38:28.944Z,99887.54
2018-08-16T10:41:03.335Z,99885.67
2018-08-16T10:43:49.398Z,99890.06
2018-08-16T10:46:19.757Z,99874.80
2018-08-16T10:48:50.766Z,99859.95
2018-08-16T10:51:21.370Z,99876.28
2018-08-16T10:53:52.091Z,99876.39
2018-08-16T10:56:23.733Z,99871.73
2018-08-16T10:58:55.592Z,99866.75
2018-08-16T11:01:25.865Z,99873.41
2018-08-16T11:03:58.577Z,99861.86
2018-08-16T11:06:29.611Z,99863.08
2018-08-16T11:08:59.858Z,99858.27
2018-08-16T11:11:30.925Z,99859.38
2018-08-16T11:14:01.749Z,99862.06
2018-08-16T11:16:32.967Z,99850.16
2018-08-16T11:19:03.264Z,99849.91
2018-08-16T11:21:37.611Z,99846.24
2018-08-16T11:24:13.092Z,99854.73
2018-08-16T11:26:51.324Z,99846.32
2018-08-16T11:29:21.799Z,99845.02
2018-08-16T11:31:52.366Z,99842.23
2018-08-16T11:34:22.668Z,99837.03
2018-08-16T11:36:53.493Z,99838.05
2018-08-16T11:39:23.676Z,99827.08
2018-08-16T11:41:54.790Z,99828.81
2018-08-16T11:44:25.500Z,99824.16
2018-08-16T11:46:55.950Z,99793.88
2018-08-16T11:49:26.286Z,99823.56
2018-08-16T11:52:00.661Z,99806.86
2018-08-16T11:54:31.655Z,99812.88
2018-08-16T11:57:04.277Z,99791.61
2018-08-16T11:59:37.128Z,99816.88
2018-08-16T12:02:07.861Z,99833.24
2018-08-16T12:04:41.173Z,99794.67
2018-08-16T12:07:11.971Z,99804.52
2018-08-16T12:09:45.504Z,99793.05
2018-08-16T12:12:16.717Z,99796.34
2018-08-16T12:14:49.528Z,99787.97
2018-08-16T12:17:22.008Z,99790.70
2018-08-16T12:19:53.386Z,99782.45
2018-08-16T12:22:24.383Z,99772.64
2018-08-16T12:24:59.227Z,99779.94
2018-08-16T12:27:33.669Z,99776.75
2018-08-16T12:30:12.271Z,99780.77
2018-08-16T12:32:49.128Z,99778.31
2018-08-16T12:35:24.419Z,99754.88
2018-08-16T12:37:56.625Z,99775.52
2018-08-16T12:40:28.720Z,99773.63
2018-08-16T12:42:59.729Z,99776.31
2018-08-16T12:45:31.800Z,99768.76
2018-08-16T12:48:02.067Z,99761.38
2018-08-16T12:50:36.201Z,99756.19
2018-08-16T12:53:07.482Z,99760.38
2018-08-16T12:55:39.616Z,99759.88
2018-08-16T12:58:12.702Z,99751.14
2018-08-16T13:00:47.376Z,99751.56
2018-08-16T13:05:56.293Z,99747.45
2018-08-16T13:08:29.967Z,99738.89
2018-08-16T13:11:01.254Z,99743.66
2018-08-16T13:13:33.168Z,99739.28
2018-08-16T13:16:08.443Z,99742.98
2018-08-16T13:18:40.574Z,99713.09
2018-08-16T13:21:15.193Z,99735.66
2018-08-16T13:23:46.580Z,99738.57
2018-08-16T13:26:16.961Z,99725.47
2018-08-16T13:28:51.749Z,99726.93
2018-08-16T13:31:25.998Z,99722.95
2018-08-16T13:33:56.198Z,99723.86
2018-08-16T13:36:39.270Z,99716.34
2018-08-16T13:39:15.787Z,99723.83
2018-08-16T13:41:46.940Z,99722.41
2018-08-16T13:44:19.248Z,99718.37
2018-08-16T13:46:50.407Z,99716.95
2018-08-16T13:49:21.540Z,99721.32
2018-08-16T13:51:53.603Z,99706.28
2018-08-16T13:54:27.397Z,99708.12
2018-08-16T13:56:57.677Z,99709.89
2018-08-16T14:02:05.801Z,99694.89
2018-08-16T14:04:36.132Z,99681.80
2018-08-16T14:07:08.900Z,99686.61
2018-08-16T14:09:39.051Z,99675.01
2018-08-16T14:12:11.421Z,99686.64
2018-08-16T14:14:44.419Z,99686.64
2018-08-16T14:17:17.231Z,99683.63
2018-08-16T14:19:48.427Z,99683.17
2018-08-16T14:22:18.523Z,99669.53
2018-08-16T14:24:48.707Z,99659.30
2018-08-16T14:27:19.316Z,99666.84
2018-08-16T14:29:49.468Z,99668.06
2018-08-16T14:32:20.039Z,99662.45
2018-08-16T14:34:50.719Z,99661.73
2018-08-16T14:37:21.806Z,99636.92
2018-08-16T14:39:53.909Z,99661.20
2018-08-16T14:42:25.540Z,99661.34
2018-08-16T14:44:56.980Z,99657.69
2018-08-16T14:47:28.544Z,99657.59
2018-08-16T14:49:59.567Z,99650.73
2018-08-16T14:52:31.455Z,99655.03
2018-08-16T14:55:02.675Z,99655.41
2018-08-16T14:57:34.717Z,99648.77
2018-08-16T15:00:10.059Z,99650.48
2018-08-16T15:02:40.306Z,99649.98
2018-08-16T15:05:13.540Z,99642.08
2018-08-16T15:07:52.355Z,99642.17
2018-08-16T15:10:23.415Z,99635.44
2018-08-16T15:12:53.597Z,99635.66
2018-08-16T15:15:26.536Z,99578.04
2018-08-16T15:17:58.616Z,99630.59
2018-08-16T15:20:28.789Z,99625.25
2018-08-16T15:23:00.651Z,99625.48
2018-08-16T15:25:33.701Z,99632.69
2018-08-16T15:28:09.553Z,99628.52
2018-08-16T15:33:16.497Z,99618.61
2018-08-16T15:35:49.385Z,99622.92
2018-08-16T15:38:19.612Z,99616.03
2018-08-16T15:40:50.802Z,99610.17
2018-08-16T15:43:22.446Z,99612.79
2018-08-16T15:45:52.812Z,99550.16
2018-08-16T15:48:23.800Z,99610.33
2018-08-16T15:50:54.721Z,99606.36
2018-08-16T15:53:25.247Z,99601.14
2018-08-16T15:55:57.830Z,99602.12
2018-08-16T15:58:28.055Z,99600.64
2018-08-16T16:00:58.319Z,99589.37
2018-08-16T16:03:29.809Z,99592.81
2018-08-16T16:06:00.963Z,99591.88
2018-08-16T16:08:31.299Z,99594.03
2018-08-16T16:11:04.069Z,99593.94
2018-08-16T16:13:35.185Z,99581.83
2018-08-16T16:16:13.858Z,99588.34
2018-08-16T16:18:49.690Z,99588.02
2018-08-16T16:21:29.005Z,99585.57
2018-08-16T16:24:11.152Z,99585.62
2018-08-16T16:26:46.628Z,99588.84
2018-08-16T16:29:18.472Z,99590.17
2018-08-16T16:31:53.561Z,99577.71
2018-08-16T16:34:27.527Z,99577.41
2018-08-16T16:37:00.373Z,99566.00
2018-08-16T16:39:32.059Z,99572.74
2018-08-16T16:42:11.126Z,99567.36
2018-08-16T16:44:47.571Z,99561.60
2018-08-16T16:47:18.650Z,99559.37
2018-08-16T16:49:52.627Z,99562.21
2018-08-16T16:52:27.110Z,99558.29
2018-08-16T16:55:04.055Z,99551.41
2018-08-16T16:57:36.540Z,99555.25
2018-08-16T17:00:40.282Z,99555.42
2018-08-16T17:03:18.511Z,99551.72
2018-08-16T17:05:57.828Z,99554.57
2018-08-16T17:08:30.383Z,99550.05
2018-08-16T17:13:53.269Z,99546.33
2018-08-16T17:16:24.639Z,99550.80
2018-08-16T17:19:00.499Z,99552.72
2018-08-16T17:21:33.093Z,99550.39
2018-08-16T17:24:06.365Z,99552.63
2018-08-16T17:26:39.269Z,99550.40
2018-08-16T17:29:10.949Z,99543.83
2018-08-16T17:31:48.910Z,99545.38
2018-08-16T17:34:29.658Z,99546.12
2018-08-16T17:40:03.428Z,99549.31
2018-08-16T17:42:35.421Z,99543.80
2018-08-16T17:45:08.194Z,99543.61
2018-08-16T17:47:39.764Z,99543.39
2018-08-16T17:50:12.060Z,99538.98
2018-08-16T17:52:42.953Z,99534.98
2018-08-16T17:55:14.448Z,99530.45
2018-08-16T17:57:45.509Z,99528.27
2018-08-16T18:00:16.467Z,99528.09
2018-08-16T18:02:48.428Z,99531.81
2018-08-16T18:05:19.247Z,99525.45
2018-08-16T18:07:50.886Z,99532.94
2018-08-16T18:10:26.195Z,99524.32
2018-08-16T18:13:00.481Z,99525.67
2018-08-16T18:15:36.251Z,99532.07
2018-08-16T18:18:09.485Z,99520.00
2018-08-16T18:20:42.212Z,99517.06
2018-08-16T18:23:20.602Z,99513.74
2018-08-16T18:25:56.526Z,99513.65
2018-08-16T18:28:34.204Z,99521.69
2018-08-16T18:31:07.197Z,99512.47
2018-08-16T18:33:40.792Z,99516.51
2018-08-16T18:36:14.350Z,99502.64
2018-08-16T18:38:50.486Z,99520.88
2018-08-16T18:41:30.626Z,99520.22
2018-08-16T18:44:06.065Z,99520.28
2018-08-16T18:46:37.374Z,99507.14
2018-08-16T18:49:08.563Z,99520.72
2018-08-16T18:51:39.602Z,99523.28
2018-08-16T18:54:11.727Z,99519.94
2018-08-16T18:56:42.727Z,99521.89
2018-08-16T18:59:16.049Z,99520.70
2018-08-16T19:01:46.991Z,99517.55
2018-08-16T19:04:17.717Z,99512.01
2018-08-16T19:06:49.416Z,99525.55
2018-08-16T19:09:20.801Z,99522.64
2018-08-16T19:11:52.349Z,99531.91
2018-08-16T19:14:22.480Z,99525.26
2018-08-16T19:16:55.010Z,99532.33
2018-08-16T19:19:25.748Z,99530.17
2018-08-16T19:21:55.885Z,99531.27
2018-08-16T19:24:29.436Z,99530.73
2018-08-16T19:27:01.448Z,99524.39
2018-08-16T19:29:34.606Z,99532.84
2018-08-16T19:32:06.764Z,99533.30
2018-08-16T19:34:38.427Z,99533.23
2018-08-16T19:37:11.118Z,99536.70
2018-08-16T19:39:44.063Z,99537.66
2018-08-16T19:42:14.630Z,99532.58
2018-08-16T19:44:45.189Z,99530.24
2018-08-16T19:47:22.494Z,99529.20
2018-08-16T19:49:54.555Z,99534.30
2018-08-16T19:52:27.167Z,99522.41
2018-08-16T19:54:57.679Z,99528.66
2018-08-16T19:57:28.653Z,99530.02
2018-08-16T20:00:03.343Z,99525.36
2018-08-16T20:02:37.239Z,99525.39
2018-08-16T20:05:08.588Z,99530.49
2018-08-16T20:07:42.608Z,99522.89
2018-08-16T20:10:15.459Z,99529.78
2018-08-16T20:12:46.459Z,99523.16
2018-08-16T20:15:16.672Z,99529.58
2018-08-16T20:17:47.791Z,99527.70
2018-08-16T20:20:21.601Z,99521.36
2018-08-16T20:22:55.837Z,99522.45
2018-08-16T20:25:29.135Z,99524.72
2018-08-16T20:28:01.709Z,99521.12
2018-08-16T20:30:35.639Z,99525.34
2018-08-16T20:33:07.411Z,99527.50
2018-08-16T20:35:39.094Z,99527.53
2018-08-16T20:38:09.624Z,99426.18
2018-08-16T20:40:41.796Z,99521.39
2018-08-16T20:43:13.958Z,99528.84
2018-08-16T20:45:44.912Z,99525.91
2018-08-16T20:48:16.135Z,99524.67
2018-08-16T20:50:51.589Z,99530.96
2018-08-16T20:53:23.734Z,99530.14
2018-08-16T20:55:55.439Z,99518.34
2018-08-16T20:58:26.467Z,99532.92
2018-08-16T21:00:58.514Z,99529.91
2018-08-16T21:03:31.280Z,99532.33
2018-08-16T21:06:03.211Z,99536.83
2018-08-16T21:08:37.336Z,99531.85
2018-08-16T21:11:12.514Z,99534.59
2018-08-16T21:13:45.666Z,99526.48
2018-08-16T21:16:21.878Z,99485.17
2018-08-16T21:18:54.467Z,99529.59
2018-08-16T21:21:25.580Z,99531.11
2018-08-16T21:23:57.433Z,99533.03
2018-08-16T21:26:28.490Z,99528.28
2018-08-16T21:28:58.711Z,99528.03
2018-08-16T21:31:30.399Z,99528.42
2018-08-16T21:34:01.498Z,99536.05
2018-08-16T21:36:33.321Z,99537.22
2018-08-16T21:39:03.245Z,99535.39
2018-08-16T21:41:50.195Z,99493.34
2018-08-16T21:44:20.366Z,99539.98
2018-08-16T21:46:51.110Z,99540.87
2018-08-16T21:49:21.575Z,99545.88
2018-08-16T21:51:53.417Z,99551.14
2018-08-16T21:54:23.623Z,99539.42
2018-08-16T21:56:55.619Z,99550.59
2018-08-16T21:59:25.717Z,99554.17
2018-08-16T22:01:57.472Z,99550.09
2018-08-16T22:04:29.091Z,99546.03
2018-08-16T22:07:05.027Z,99547.44
2018-08-16T22:09:38.484Z,99548.26
2018-08-16T22:12:10.950Z,99530.54
2018-08-16T22:14:41.154Z,99551.32
2018-08-16T22:17:16.227Z,99547.77
2018-08-16T22:19:45.522Z,99540.92
2018-08-16T22:22:17.489Z,99530.50
2018-08-16T22:24:49.194Z,99540.58
2018-08-16T22:27:20.322Z,99544.14
2018-08-16T22:29:50.332Z,99544.70
2018-08-16T22:32:23.332Z,99544.23
2018-08-16T22:34:55.443Z,99545.90
2018-08-16T22:37:28.564Z,99545.34
2018-08-16T22:40:00.885Z,99541.83
2018-08-16T22:42:32.115Z,99543.23
2018-08-16T22:45:03.032Z,99550.02
2018-08-16T22:47:34.357Z,99542.58
2018-08-16T22:50:04.934Z,99552.44
2018-08-16T22:52:36.261Z,99541.13
2018-08-16T22:55:07.483Z,99490.09
2018-08-16T22:57:37.740Z,99544.37
2018-08-16T23:00:09.291Z,99543.28
2018-08-16T23:02:44.578Z,99534.95
2018-08-16T23:05:26.372Z,99541.78
2018-08-16T23:07:57.366Z,99545.88
2018-08-16T23:10:30.911Z,99541.52
2018-08-16T23:13:02.119Z,99538.21
2018-08-16T23:15:32.283Z,99545.83
2018-08-16T23:18:03.142Z,99537.92
2018-08-16T23:20:33.756Z,99537.95
2018-08-16T23:23:04.767Z,99536.83
2018-08-16T23:25:34.969Z,99533.37
2018-08-16T23:28:07.447Z,99536.64
2018-08-16T23:30:40.809Z,99536.34
2018-08-16T23:33:12.717Z,99533.86
2018-08-16T23:35:43.771Z,99530.30
2018-08-16T23:38:14.459Z,99528.95
2018-08-16T23:40:44.670Z,99530.00
2018-08-16T23:43:13.891Z,99531.88
2018-08-16T23:45:45.799Z,99531.83
2018-08-16T23:48:26.893Z,99535.69
2018-08-16T23:50:59.354Z,99524.95
2018-08-16T23:53:29.615Z,99519.45
2018-08-16T23:56:01.387Z,99529.35
2018-08-16T23:58:32.577Z,99517.27
